createdAt,value
2018-04-16T00:01:45.520Z,2.57
2018-04-16T00:04:13.076Z,2.63
2018-04-16T00:06:40.600Z,3.20
2018-04-16T00:09:08.915Z,2.70
2018-04-16T00:11:36.488Z,3.13
2018-04-16T00:14:04.041Z,2.62
2018-04-16T00:16:31.584Z,2.80
2018-04-16T00:18:59.135Z,2.80
2018-04-16T00:21:26.717Z,3.00
2018-04-16T00:23:54.274Z,2.80
2018-04-16T00:26:21.825Z,3.23
2018-04-16T00:28:49.345Z,3.10
2018-04-16T00:31:16.878Z,3.30
2018-04-16T00:33:50.272Z,3.17
2018-04-16T00:39:24.390Z,3.33
2018-04-16T00:41:57.562Z,3.57
2018-04-16T00:44:30.905Z,4.10
2018-04-16T00:47:04.145Z,4.00
2018-04-16T00:49:37.344Z,3.73
2018-04-16T00:52:10.680Z,3.70
2018-04-16T00:54:43.923Z,4.13
2018-04-16T00:57:17.218Z,5.10
2018-04-16T00:59:50.420Z,4.97
2018-04-16T01:02:23.660Z,5.27
2018-04-16T01:04:56.794Z,4.40
2018-04-16T01:07:29.957Z,5.13
2018-04-16T01:10:03.887Z,4.97
2018-04-16T01:12:38.964Z,4.97
2018-04-16T01:15:12.139Z,4.67
2018-04-16T01:20:49.156Z,3.70
2018-04-16T01:23:22.280Z,4.30
2018-04-16T01:25:56.380Z,3.73
2018-04-16T01:28:29.536Z,3.87
2018-04-16T01:31:02.719Z,4.17
2018-04-16T01:36:39.932Z,3.57
2018-04-16T01:39:13.232Z,3.20
2018-04-16T01:41:46.394Z,3.03
2018-04-16T01:44:19.716Z,3.00
2018-04-16T01:46:52.914Z,3.90
2018-04-16T01:49:26.132Z,2.97
2018-04-16T01:51:59.496Z,2.97
2018-04-16T01:54:32.783Z,3.13
2018-04-16T01:57:06.069Z,2.70
2018-04-16T01:59:39.261Z,2.97
2018-04-16T02:02:12.430Z,2.90
2018-04-16T02:04:45.676Z,3.10
2018-04-16T02:07:18.981Z,3.07
2018-04-16T02:09:52.183Z,2.70
2018-04-16T02:12:26.212Z,2.70
2018-04-16T02:14:59.532Z,3.27
2018-04-16T02:17:32.669Z,2.80
2018-04-16T02:20:05.844Z,2.87
2018-04-16T02:22:39.269Z,2.85
2018-04-16T02:25:13.190Z,2.80
2018-04-16T02:27:46.312Z,3.30
2018-04-16T02:30:19.592Z,2.90
2018-04-16T02:32:52.800Z,3.37
2018-04-16T02:35:25.925Z,2.97
2018-04-16T02:37:59.236Z,2.90
2018-04-16T02:40:33.312Z,3.93
2018-04-16T02:43:06.569Z,3.65
2018-04-16T02:45:39.734Z,3.10
2018-04-16T02:48:13.685Z,3.83
2018-04-16T02:50:46.975Z,3.50
2018-04-16T02:53:20.282Z,4.07
2018-04-16T02:55:53.453Z,3.47
2018-04-16T02:58:26.657Z,3.57
2018-04-16T03:00:59.921Z,3.80
2018-04-16T03:03:33.968Z,3.47
2018-04-16T03:06:07.188Z,4.17
2018-04-16T03:08:40.508Z,3.50
2018-04-16T03:11:14.584Z,3.20
2018-04-16T03:13:47.726Z,3.87
2018-04-16T03:16:20.903Z,3.50
2018-04-16T03:18:54.920Z,3.47
2018-04-16T03:21:28.967Z,4.27
2018-04-16T03:24:02.123Z,3.87
2018-04-16T03:29:41.252Z,3.70
2018-04-16T03:32:14.402Z,3.50
2018-04-16T03:34:47.704Z,4.07
2018-04-16T03:37:21.085Z,3.80
2018-04-16T03:39:54.346Z,4.05
2018-04-16T03:42:28.438Z,3.50
2018-04-16T03:45:01.645Z,4.70
2018-04-16T03:47:35.620Z,3.87
2018-04-16T03:50:08.782Z,3.97
2018-04-16T03:52:42.057Z,4.03
2018-04-16T03:55:15.275Z,4.33
2018-04-16T03:57:42.822Z,4.47
2018-04-16T04:00:10.385Z,3.50
2018-04-16T04:02:37.916Z,4.10
2018-04-16T04:05:05.490Z,3.77
2018-04-16T04:07:33.043Z,3.63
2018-04-16T04:10:00.590Z,4.37
2018-04-16T04:12:28.173Z,4.03
2018-04-16T04:14:55.705Z,4.87
2018-04-16T04:17:24.030Z,5.13
2018-04-16T04:19:51.567Z,4.47
2018-04-16T04:22:19.130Z,4.73
2018-04-16T04:24:58.497Z,4.67
2018-04-16T04:27:37.938Z,4.50
2018-04-16T04:30:17.275Z,4.50
2018-04-16T04:32:44.858Z,4.80
2018-04-16T04:35:13.181Z,4.00
2018-04-16T04:37:40.723Z,4.50
2018-04-16T04:40:08.319Z,5.57
2018-04-16T04:42:35.869Z,4.70
2018-04-16T04:45:03.453Z,4.57
2018-04-16T04:47:30.984Z,5.30
2018-04-16T04:49:58.559Z,4.73
2018-04-16T04:52:26.102Z,5.10
2018-04-16T04:54:53.628Z,4.97
2018-04-16T04:57:21.205Z,5.70
2018-04-16T04:59:48.769Z,4.87
2018-04-16T05:02:16.316Z,4.20
2018-04-16T05:04:43.848Z,4.33
2018-04-16T05:07:12.188Z,4.60
2018-04-16T05:09:39.744Z,4.00
2018-04-16T05:12:07.310Z,4.77
2018-04-16T05:14:35.615Z,4.80
2018-04-16T05:17:03.168Z,5.23
2018-04-16T05:19:30.748Z,4.80
2018-04-16T05:21:59.073Z,4.73
2018-04-16T05:24:26.637Z,3.67
2018-04-16T05:26:54.179Z,4.70
2018-04-16T05:29:21.743Z,4.73
2018-04-16T05:31:49.294Z,5.10
2018-04-16T05:34:16.835Z,4.47
2018-04-16T05:36:44.403Z,4.10
2018-04-16T05:39:11.961Z,5.20
2018-04-16T05:41:39.521Z,4.53
2018-04-16T05:44:07.076Z,4.97
2018-04-16T05:46:34.653Z,4.60
2018-04-16T05:49:02.212Z,5.00
2018-04-16T05:51:29.753Z,6.20
2018-04-16T05:53:57.324Z,5.87
2018-04-16T05:56:24.871Z,6.60
2018-04-16T05:58:52.428Z,5.87
2018-04-16T06:01:19.979Z,7.00
2018-04-16T06:03:47.559Z,6.37
2018-04-16T06:06:15.127Z,8.17
2018-04-16T06:08:42.671Z,7.67
2018-04-16T06:11:10.249Z,8.10
2018-04-16T06:13:37.825Z,7.80
2018-04-16T06:16:05.393Z,7.53
2018-04-16T06:18:32.933Z,7.97
2018-04-16T06:21:00.479Z,7.77
2018-04-16T06:23:28.008Z,7.93
2018-04-16T06:25:56.339Z,8.47
2018-04-16T06:28:23.880Z,7.93
2018-04-16T06:30:51.428Z,7.70
2018-04-16T06:33:19.005Z,8.63
2018-04-16T06:35:46.550Z,8.73
2018-04-16T06:38:14.114Z,9.40
2018-04-16T06:40:41.668Z,9.40
2018-04-16T06:43:09.241Z,10.17
2018-04-16T06:45:42.222Z,10.77
2018-04-16T06:48:10.740Z,10.23
2018-04-16T06:50:38.285Z,9.93
2018-04-16T06:53:05.829Z,9.47
2018-04-16T06:55:33.410Z,9.90
2018-04-16T06:58:00.937Z,9.10
2018-04-16T07:00:32.254Z,9.47
2018-04-16T07:02:59.798Z,10.17
2018-04-16T07:05:28.139Z,10.70
2018-04-16T07:07:55.674Z,11.10
2018-04-16T07:10:23.223Z,10.40
2018-04-16T07:12:50.824Z,10.90
2018-04-16T07:15:18.355Z,11.13
2018-04-16T07:17:45.911Z,11.20
2018-04-16T07:20:13.480Z,11.30
2018-04-16T07:22:41.048Z,11.00
2018-04-16T07:25:08.580Z,10.57
2018-04-16T07:27:36.127Z,11.27
2018-04-16T07:30:03.696Z,10.93
2018-04-16T07:32:31.228Z,10.60
2018-04-16T07:34:59.568Z,11.50
2018-04-16T07:37:27.251Z,12.20
2018-04-16T07:39:54.828Z,11.80
2018-04-16T07:42:23.146Z,11.90
2018-04-16T07:44:50.673Z,12.67
2018-04-16T07:47:18.986Z,14.03
2018-04-16T07:49:46.524Z,11.23
2018-04-16T07:52:14.112Z,12.07
2018-04-16T07:54:41.654Z,10.63
2018-04-16T07:57:09.231Z,12.07
2018-04-16T07:59:36.759Z,12.03
2018-04-16T08:02:04.314Z,10.50
2018-04-16T08:04:31.889Z,10.70
2018-04-16T08:06:59.448Z,10.47
2018-04-16T08:09:26.992Z,9.30
2018-04-16T08:11:54.534Z,8.90
2018-04-16T08:14:22.851Z,9.40
2018-04-16T08:16:50.398Z,10.07
2018-04-16T08:19:18.005Z,8.50
2018-04-16T08:21:45.547Z,10.30
2018-04-16T08:24:13.076Z,9.33
2018-04-16T08:26:40.634Z,9.67
2018-04-16T08:29:08.186Z,10.10
2018-04-16T08:31:35.756Z,11.90
2018-04-16T08:34:03.312Z,10.50
2018-04-16T08:36:30.868Z,11.47
2018-04-16T08:38:58.445Z,11.80
2018-04-16T08:41:25.986Z,9.63
2018-04-16T08:43:53.598Z,9.80
2018-04-16T08:46:21.143Z,10.30
2018-04-16T08:48:48.728Z,10.77
2018-04-16T08:51:16.266Z,8.73
2018-04-16T08:53:43.799Z,8.93
2018-04-16T08:56:11.362Z,10.40
2018-04-16T08:58:38.884Z,8.70
2018-04-16T09:01:07.237Z,9.27
2018-04-16T09:03:34.773Z,8.60
2018-04-16T09:06:02.357Z,8.93
2018-04-16T09:08:29.900Z,8.67
2018-04-16T09:10:57.459Z,8.97
2018-04-16T09:13:24.994Z,8.37
2018-04-16T09:15:52.582Z,8.27
2018-04-16T09:18:20.147Z,9.27
2018-04-16T09:20:47.714Z,6.27
2018-04-16T09:23:15.265Z,7.13
2018-04-16T09:25:42.792Z,5.47
2018-04-16T09:28:10.360Z,4.97
2018-04-16T09:30:37.907Z,4.77
2018-04-16T09:33:05.485Z,4.10
2018-04-16T09:35:33.060Z,5.60
2018-04-16T09:38:00.610Z,5.20
2018-04-16T09:40:28.190Z,5.67
2018-04-16T09:42:55.744Z,5.63
2018-04-16T09:45:23.292Z,5.00
2018-04-16T09:47:50.812Z,6.63
2018-04-16T09:50:18.361Z,6.80
2018-04-16T09:52:45.923Z,6.63
2018-04-16T09:55:13.481Z,8.20
2018-04-16T09:57:41.050Z,7.00
2018-04-16T10:00:08.585Z,7.23
2018-04-16T10:02:36.913Z,7.10
2018-04-16T10:05:04.491Z,6.23
2018-04-16T10:07:32.822Z,5.27
2018-04-16T10:10:00.369Z,6.40
2018-04-16T10:12:27.924Z,5.30
2018-04-16T10:14:55.487Z,6.17
2018-04-16T10:17:23.016Z,6.80
2018-04-16T10:19:50.582Z,6.30
2018-04-16T10:22:18.889Z,6.97
2018-04-16T10:24:46.605Z,6.37
2018-04-16T10:27:14.170Z,7.13
2018-04-16T10:29:41.701Z,8.70
2018-04-16T10:32:09.285Z,8.67
2018-04-16T10:34:36.821Z,10.00
2018-04-16T10:37:04.395Z,8.27
2018-04-16T10:39:31.998Z,9.37
2018-04-16T10:42:00.299Z,8.30
2018-04-16T10:44:27.877Z,11.37
2018-04-16T10:46:55.400Z,12.77
2018-04-16T10:49:22.963Z,9.97
2018-04-16T10:51:50.511Z,13.27
2018-04-16T10:54:18.079Z,15.70
2018-04-16T10:56:45.625Z,16.00
2018-04-16T10:59:13.954Z,16.37
2018-04-16T11:01:41.535Z,11.33
2018-04-16T11:04:09.096Z,14.90
2018-04-16T11:06:36.666Z,20.20
2018-04-16T11:09:05.760Z,19.20
2018-04-16T11:11:34.096Z,17.40
2018-04-16T11:14:01.625Z,13.63
2018-04-16T11:16:29.178Z,11.40
2018-04-16T11:18:56.757Z,14.30
2018-04-16T11:21:24.305Z,14.87
2018-04-16T11:23:51.869Z,12.33
2018-04-16T11:26:19.419Z,13.83
2018-04-16T11:28:46.990Z,14.00
2018-04-16T11:31:14.546Z,17.27
2018-04-16T11:33:42.087Z,13.50
2018-04-16T11:36:10.669Z,20.53
2018-04-16T11:38:38.243Z,21.03
2018-04-16T11:41:05.807Z,22.13
2018-04-16T11:43:33.355Z,26.27
2018-04-16T11:46:00.930Z,26.43
2018-04-16T11:48:28.489Z,26.20
2018-04-16T11:50:56.053Z,22.97
2018-04-16T11:53:23.619Z,22.77
2018-04-16T11:55:51.954Z,23.50
2018-04-16T11:58:20.299Z,26.73
2018-04-16T12:00:47.838Z,23.43
2018-04-16T12:03:15.417Z,23.10
2018-04-16T12:05:42.956Z,19.43
2018-04-16T12:08:10.517Z,21.17
2018-04-16T12:10:38.094Z,19.23
2018-04-16T12:13:05.643Z,21.70
2018-04-16T12:15:33.195Z,17.47
2018-04-16T12:18:00.773Z,15.57
2018-04-16T12:20:28.330Z,14.33
2018-04-16T12:22:55.906Z,13.70
2018-04-16T12:25:23.443Z,16.53
2018-04-16T12:27:51.069Z,17.97
2018-04-16T12:30:18.581Z,16.37
2018-04-16T12:32:46.137Z,16.27
2018-04-16T12:35:13.678Z,17.63
2018-04-16T12:37:41.238Z,18.53
2018-04-16T12:40:08.797Z,18.63
2018-04-16T12:42:36.344Z,19.77
2018-04-16T12:45:04.061Z,15.90
2018-04-16T12:47:31.630Z,16.37
2018-04-16T12:49:59.986Z,17.03
2018-04-16T12:52:27.544Z,15.20
2018-04-16T12:54:55.106Z,12.37
2018-04-16T12:57:22.632Z,15.50
2018-04-16T12:59:50.221Z,14.17
2018-04-16T13:02:17.774Z,12.93
2018-04-16T13:04:45.319Z,13.07
2018-04-16T13:07:12.947Z,12.00
2018-04-16T13:09:40.502Z,13.13
2018-04-16T13:12:08.085Z,11.00
2018-04-16T13:14:35.644Z,10.37
2018-04-16T13:17:03.239Z,11.17
2018-04-16T13:19:31.617Z,11.50
2018-04-16T13:21:59.219Z,11.93
2018-04-16T13:24:26.773Z,10.73
2018-04-16T13:26:54.330Z,12.83
2018-04-16T13:29:22.084Z,13.80
2018-04-16T13:31:50.403Z,13.87
2018-04-16T13:34:17.979Z,13.33
2018-04-16T13:36:45.563Z,14.50
2018-04-16T13:39:13.097Z,15.73
2018-04-16T13:41:40.683Z,17.03
2018-04-16T13:44:08.227Z,17.50
2018-04-16T13:46:36.578Z,17.63
2018-04-16T13:49:04.132Z,18.87
2018-04-16T13:51:31.722Z,20.13
2018-04-16T13:53:59.271Z,19.60
2018-04-16T13:56:26.804Z,19.23
2018-04-16T13:58:54.437Z,20.30
2018-04-16T14:01:21.995Z,20.70
2018-04-16T14:03:50.366Z,20.98
2018-04-16T14:06:18.703Z,24.40
2018-04-16T14:08:46.477Z,25.10
2018-04-16T14:11:14.028Z,23.83
2018-04-16T14:13:41.658Z,22.53
2018-04-16T14:16:09.276Z,24.67
2018-04-16T14:18:37.617Z,22.90
2018-04-16T14:21:05.206Z,25.00
2018-04-16T14:23:32.910Z,29.07
2018-04-16T14:26:00.541Z,28.53
2018-04-16T14:28:28.102Z,25.30
2018-04-16T14:30:56.539Z,28.50
2018-04-16T14:33:24.076Z,27.77
2018-04-16T14:35:51.659Z,21.37
2018-04-16T14:38:19.229Z,23.67
2018-04-16T14:40:46.771Z,22.13
2018-04-16T14:43:14.539Z,22.00
2018-04-16T14:45:42.489Z,21.37
2018-04-16T14:48:10.106Z,23.10
2018-04-16T14:50:37.666Z,21.07
2018-04-16T14:53:05.317Z,19.10
2018-04-16T14:55:34.199Z,18.40
2018-04-16T14:58:02.559Z,17.92
2018-04-16T15:00:30.126Z,17.60
2018-04-16T15:02:57.696Z,16.93
2018-04-16T15:05:25.320Z,16.40
2018-04-16T15:07:53.530Z,18.07
2018-04-16T15:10:21.743Z,18.43
2018-04-16T15:12:50.789Z,17.07
2018-04-16T15:15:19.225Z,16.80
2018-04-16T15:17:47.340Z,18.12
2018-04-16T15:20:15.859Z,18.90
2018-04-16T15:22:44.384Z,19.87
2018-04-16T15:25:13.606Z,17.97
2018-04-16T15:27:41.981Z,19.53
2018-04-16T15:30:10.192Z,17.03
2018-04-16T15:32:38.583Z,18.53
2018-04-16T15:35:06.731Z,16.97
2018-04-16T15:37:35.027Z,17.60
2018-04-16T15:40:03.961Z,17.50
2018-04-16T15:42:31.609Z,18.63
2018-04-16T15:44:59.915Z,17.03
2018-04-16T15:47:29.032Z,18.13
2018-04-16T15:49:57.322Z,17.77
2018-04-16T15:52:25.845Z,18.63
2018-04-16T15:54:54.897Z,16.00
2018-04-16T15:57:23.489Z,18.30
2018-04-16T15:59:51.943Z,17.90
2018-04-16T16:02:20.490Z,20.70
2018-04-16T16:04:49.943Z,18.27
2018-04-16T16:07:18.341Z,20.00
2018-04-16T16:09:47.731Z,18.77
2018-04-16T16:12:16.083Z,16.27
2018-04-16T16:14:44.598Z,15.97
2018-04-16T16:17:13.163Z,18.03
2018-04-16T16:19:41.282Z,18.20
2018-04-16T16:22:09.724Z,15.57
2018-04-16T16:24:38.278Z,14.40
2018-04-16T16:27:06.664Z,13.40
2018-04-16T16:29:35.043Z,13.23
2018-04-16T16:32:03.426Z,13.93
2018-04-16T16:34:31.679Z,13.53
2018-04-16T16:37:00.116Z,13.20
2018-04-16T16:39:28.522Z,12.30
2018-04-16T16:41:57.677Z,12.53
2018-04-16T16:44:26.014Z,11.07
2018-04-16T16:46:54.599Z,10.40
2018-04-16T16:49:22.704Z,10.90
2018-04-16T16:51:50.870Z,10.80
2018-04-16T16:54:19.290Z,10.23
2018-04-16T16:56:47.544Z,10.80
2018-04-16T16:59:15.935Z,11.40
2018-04-16T17:01:44.543Z,9.67
2018-04-16T17:04:13.196Z,9.90
2018-04-16T17:06:42.488Z,11.10
2018-04-16T17:09:10.972Z,10.20
2018-04-16T17:11:39.713Z,10.00
2018-04-16T17:14:08.291Z,10.33
2018-04-16T17:16:36.855Z,10.23
2018-04-16T17:19:05.353Z,10.43
2018-04-16T17:21:33.923Z,9.40
2018-04-16T17:24:03.069Z,10.03
2018-04-16T17:26:31.585Z,10.30
2018-04-16T17:29:01.116Z,9.00
2018-04-16T17:31:29.697Z,9.57
2018-04-16T17:33:58.144Z,9.23
2018-04-16T17:36:26.714Z,8.57
2018-04-16T17:38:55.081Z,9.10
2018-04-16T17:41:23.396Z,8.57
2018-04-16T17:43:52.531Z,8.33
2018-04-16T17:46:21.668Z,8.40
2018-04-16T17:48:49.953Z,7.93
2018-04-16T17:51:18.263Z,7.40
2018-04-16T17:53:47.111Z,7.40
2018-04-16T17:56:15.604Z,6.93
2018-04-16T17:58:44.631Z,7.60
2018-04-16T18:01:13.250Z,7.00
2018-04-16T18:03:41.645Z,7.47
2018-04-16T18:06:10.143Z,7.20
2018-04-16T18:08:38.511Z,7.97
2018-04-16T18:11:07.010Z,7.20
2018-04-16T18:13:35.784Z,7.60
2018-04-16T18:16:04.976Z,7.97
2018-04-16T18:18:33.567Z,7.87
2018-04-16T18:21:02.892Z,6.60
2018-04-16T18:23:31.126Z,6.70
2018-04-16T18:26:00.400Z,6.83
2018-04-16T18:31:07.839Z,6.93
2018-04-16T18:33:36.109Z,6.73
2018-04-16T18:36:04.874Z,6.53
2018-04-16T18:38:33.273Z,6.27
2018-04-16T18:41:01.606Z,5.90
2018-04-16T18:43:30.727Z,6.10
2018-04-16T18:45:59.030Z,6.50
2018-04-16T18:48:27.676Z,6.37
2018-04-16T18:50:56.053Z,6.60
2018-04-16T18:53:24.515Z,6.40
2018-04-16T18:55:53.809Z,6.77
2018-04-16T18:58:23.147Z,6.80
2018-04-16T19:00:51.887Z,6.80
2018-04-16T19:03:20.362Z,6.73
2018-04-16T19:05:48.913Z,7.13
2018-04-16T19:08:17.708Z,6.90
2018-04-16T19:10:46.488Z,6.33
2018-04-16T19:13:15.042Z,7.20
2018-04-16T19:15:43.739Z,7.10
2018-04-16T19:18:12.457Z,6.87
2018-04-16T19:20:47.387Z,7.30
2018-04-16T19:23:16.640Z,7.97
2018-04-16T19:25:45.220Z,8.10
2018-04-16T19:28:19.201Z,8.30
2018-04-16T19:30:47.751Z,8.10
2018-04-16T19:33:21.857Z,8.70
2018-04-16T19:35:50.413Z,7.90
2018-04-16T19:38:19.128Z,7.43
2018-04-16T19:40:47.597Z,6.93
2018-04-16T19:43:16.105Z,7.50
2018-04-16T19:45:44.643Z,8.27
2018-04-16T19:48:13.731Z,8.70
2018-04-16T19:50:42.218Z,8.20
2018-04-16T19:53:10.715Z,8.27
2018-04-16T19:55:45.473Z,7.67
2018-04-16T19:58:19.584Z,7.80
2018-04-16T20:00:48.826Z,7.50
2018-04-16T20:06:21.382Z,8.10
2018-04-16T20:08:49.757Z,7.93
2018-04-16T20:11:17.766Z,7.30
2018-04-16T20:13:46.289Z,8.70
2018-04-16T20:16:14.625Z,8.63
2018-04-16T20:18:43.317Z,8.13
2018-04-16T20:21:12.690Z,7.90
2018-04-16T20:23:41.620Z,8.20
2018-04-16T20:26:09.976Z,7.57
2018-04-16T20:28:38.472Z,8.23
2018-04-16T20:31:06.847Z,10.80
2018-04-16T20:33:35.955Z,9.13
2018-04-16T20:36:04.322Z,9.20
2018-04-16T20:38:33.468Z,8.10
2018-04-16T20:41:02.091Z,10.30
2018-04-16T20:43:30.466Z,7.60
2018-04-16T20:45:58.697Z,8.73
2018-04-16T20:48:26.617Z,8.20
2018-04-16T20:50:55.002Z,8.53
2018-04-16T20:53:23.775Z,9.13
2018-04-16T20:55:51.488Z,7.57
2018-04-16T20:58:19.345Z,8.50
2018-04-16T21:00:48.306Z,7.67
2018-04-16T21:03:15.912Z,8.50
2018-04-16T21:05:43.745Z,8.27
2018-04-16T21:08:11.521Z,9.43
2018-04-16T21:10:39.991Z,8.10
2018-04-16T21:13:08.163Z,9.20
2018-04-16T21:15:37.082Z,7.87
2018-04-16T21:18:05.267Z,8.40
2018-04-16T21:20:33.071Z,8.50
2018-04-16T21:23:02.537Z,9.57
2018-04-16T21:25:30.224Z,7.57
2018-04-16T21:27:58.719Z,8.67
2018-04-16T21:30:26.869Z,7.60
2018-04-16T21:32:54.552Z,8.33
2018-04-16T21:35:22.179Z,8.37
2018-04-16T21:37:49.925Z,8.67
2018-04-16T21:40:17.533Z,9.03
2018-04-16T21:42:45.862Z,8.93
2018-04-16T21:45:13.434Z,8.40
2018-04-16T21:47:41.118Z,8.73
2018-04-16T21:50:09.455Z,8.27
2018-04-16T21:52:37.001Z,8.90
2018-04-16T21:55:04.585Z,8.50
2018-04-16T21:57:32.166Z,8.17
2018-04-16T21:59:59.709Z,7.90
2018-04-16T22:02:27.264Z,9.03
2018-04-16T22:04:54.799Z,8.00
2018-04-16T22:07:22.362Z,9.17
2018-04-16T22:09:49.916Z,7.90
2018-04-16T22:12:17.452Z,8.80
2018-04-16T22:14:45.021Z,8.63
2018-04-16T22:17:12.604Z,8.57
2018-04-16T22:19:40.189Z,9.37
2018-04-16T22:22:07.761Z,8.10
2018-04-16T22:24:35.344Z,7.90
2018-04-16T22:27:03.683Z,8.33
2018-04-16T22:29:31.254Z,8.00
2018-04-16T22:31:58.804Z,8.03
2018-04-16T22:34:26.350Z,8.30
2018-04-16T22:36:53.925Z,8.13
2018-04-16T22:39:21.475Z,8.70
2018-04-16T22:41:49.047Z,9.20
2018-04-16T22:44:16.586Z,8.20
2018-04-16T22:46:44.154Z,8.23
2018-04-16T22:49:13.738Z,7.93
2018-04-16T22:51:41.287Z,7.53
2018-04-16T22:54:08.846Z,8.37
2018-04-16T22:56:36.386Z,8.60
2018-04-16T22:59:04.726Z,10.23
2018-04-16T23:01:32.312Z,7.77
2018-04-16T23:04:00.638Z,7.17
2018-04-16T23:06:28.182Z,9.03
2018-04-16T23:08:55.750Z,7.90
2018-04-16T23:11:23.307Z,8.80
2018-04-16T23:13:50.864Z,9.00
2018-04-16T23:16:18.448Z,10.07
2018-04-16T23:18:45.991Z,8.80
2018-04-16T23:21:13.569Z,9.60
2018-04-16T23:23:41.129Z,8.20
2018-04-16T23:26:09.458Z,9.23
2018-04-16T23:28:37.006Z,9.67
2018-04-16T23:31:05.323Z,9.07
2018-04-16T23:33:32.858Z,8.37
2018-04-16T23:36:00.394Z,9.27
2018-04-16T23:38:28.753Z,10.10
2018-04-16T23:40:56.294Z,8.57
2018-04-16T23:43:23.873Z,8.50
2018-04-16T23:45:51.422Z,8.23
2018-04-16T23:48:18.986Z,8.03
2018-04-16T23:50:46.530Z,9.03
2018-04-16T23:53:14.060Z,8.90
2018-04-16T23:55:41.666Z,8.90
2018-04-16T23:58:09.233Z,9.27
